Time;durP1;ratioP1;P1;durP2;ratioP2;P2;SDS_P1;SDS_P2;PMS_P1;PMS_P2;Temp;Humidity;BMP_temperature;BMP_pressure;BME280_temperature;BME280_humidity;BME280_pressure;Samples;Min_cycle;Max_cycle;Signal;HPM_P1;HPM_P2
2024/01/15 00:01:46;;;;;;;4.30;2.78;;;;;;;18.62;38.79;100245.91;4967845;28;97422;-85
2024/01/15 00:04:12;;;;;;;4.72;3.42;;;;;;;18.61;38.56;100245.03;4973175;28;96818;-85
2024/01/15 00:06:37;;;;;;;5.03;3.22;;;;;;;18.61;38.41;100241.53;4992129;28;97063;-85
2024/01/15 00:09:02;;;;;;;4.50;3.00;;;;;;;18.62;38.50;100232.69;4987201;28;98024;-85
2024/01/15 00:11:28;;;;;;;4.82;3.47;;;;;;;18.60;38.65;100226.59;4988684;28;97164;-85
2024/01/15 00:13:53;;;;;;;4.43;3.17;;;;;;;18.60;38.80;100221.31;4969555;28;96909;-85
2024/01/15 00:16:18;;;;;;;4.57;3.20;;;;;;;18.62;38.69;100224.75;4980539;28;97417;-85
2024/01/15 00:18:44;;;;;;;4.88;3.25;;;;;;;18.61;38.64;100225.69;4977392;28;99099;-84
2024/01/15 00:21:09;;;;;;;4.78;3.15;;;;;;;18.61;38.79;100225.69;5008626;27;117198;-85
2024/01/15 00:23:35;;;;;;;3.90;2.75;;;;;;;18.60;38.83;100219.53;4979009;28;96973;-85
2024/01/15 00:26:01;;;;;;;4.90;2.72;;;;;;;18.60;38.47;100216.03;4977605;28;97143;-85
2024/01/15 00:28:26;;;;;;;4.90;2.90;;;;;;;18.60;38.66;100211.59;4977570;28;100062;-85
2024/01/15 00:30:52;;;;;;;4.05;2.83;;;;;;;18.61;38.59;100208.06;4984499;28;105968;-85
2024/01/15 00:33:17;;;;;;;5.53;3.63;;;;;;;18.60;38.63;100216.03;4970317;28;96926;-85
2024/01/15 00:35:42;;;;;;;4.20;2.83;;;;;;;18.59;38.45;100215.19;4986135;28;96773;-85
2024/01/15 00:38:08;;;;;;;3.17;2.15;;;;;;;18.60;38.40;100206.31;4979337;28;121145;-85
2024/01/15 00:40:33;;;;;;;4.53;2.53;;;;;;;18.60;38.66;100205.47;4966197;28;128023;-85
2024/01/15 00:42:59;;;;;;;3.88;2.53;;;;;;;18.60;38.58;100202.81;4977397;28;96961;-84
2024/01/15 00:45:24;;;;;;;4.15;2.63;;;;;;;18.60;38.43;100198.41;4983786;28;96901;-85
2024/01/15 00:47:50;;;;;;;3.60;2.22;;;;;;;18.60;38.31;100193.13;4972503;28;98321;-85
2024/01/15 00:50:15;;;;;;;5.55;3.15;;;;;;;18.60;38.72;100184.34;4970125;28;97456;-85
2024/01/15 00:52:40;;;;;;;4.32;3.42;;;;;;;18.60;38.68;100179.06;4987287;28;96869;-85
2024/01/15 00:55:06;;;;;;;4.90;2.35;;;;;;;18.60;38.63;100184.34;4970518;28;97806;-85
2024/01/15 00:57:32;;;;;;;4.07;2.10;;;;;;;18.59;38.32;100180.84;4989008;28;97306;-85
2024/01/15 00:59:58;;;;;;;4.18;3.03;;;;;;;18.60;38.72;100184.34;4986943;28;96693;-84
2024/01/15 01:02:23;;;;;;;4.38;2.42;;;;;;;18.60;38.46;100186.97;4985093;28;96791;-85
2024/01/15 01:04:49;;;;;;;3.50;2.25;;;;;;;18.59;38.66;100178.19;4995951;28;96927;-85
2024/01/15 01:07:14;;;;;;;4.07;2.30;;;;;;;18.60;38.44;100182.53;4964053;28;97712;-85
2024/01/15 01:09:40;;;;;;;3.63;2.28;;;;;;;18.59;38.66;100172.91;4986553;28;98248;-85
2024/01/15 01:12:06;;;;;;;3.47;2.40;;;;;;;18.59;38.42;100175.56;4988566;28;97420;-84
2024/01/15 01:14:32;;;;;;;4.32;2.95;;;;;;;18.59;38.51;100172.91;4988727;28;96875;-85
2024/01/15 01:16:57;;;;;;;4.00;2.17;;;;;;;18.60;38.38;100173.78;4962612;28;99960;-85
2024/01/15 01:19:22;;;;;;;4.13;2.70;;;;;;;18.59;38.61;100161.47;4998648;28;99956;-85
2024/01/15 01:21:48;;;;;;;3.92;2.22;;;;;;;18.58;38.63;100167.69;4977690;28;97714;-85
2024/01/15 01:24:14;;;;;;;3.40;2.42;;;;;;;18.59;38.36;100174.66;4985062;28;96760;-85
2024/01/15 01:26:39;;;;;;;4.22;2.40;;;;;;;18.58;38.65;100176.47;4952903;28;98764;-85
2024/01/15 01:29:05;;;;;;;4.38;2.08;;;;;;;18.58;38.61;100165.88;4965698;28;104928;-85
2024/01/15 01:31:30;;;;;;;3.33;2.20;;;;;;;18.59;38.40;100175.56;4978784;28;97183;-85
2024/01/15 01:33:55;;;;;;;3.85;2.70;;;;;;;18.59;38.32;100177.31;4987720;28;111945;-85
2024/01/15 01:36:21;;;;;;;3.25;2.15;;;;;;;18.60;38.24;100181.69;4979045;28;97958;-85
2024/01/15 01:38:46;;;;;;;3.20;2.03;;;;;;;18.59;38.59;100178.19;5008192;27;97054;-85
2024/01/15 01:41:12;;;;;;;3.58;2.17;;;;;;;18.59;38.36;100177.31;4986539;28;96730;-85
2024/01/15 01:43:37;;;;;;;3.97;2.30;;;;;;;18.59;38.38;100172.03;4968419;28;115608;-85
2024/01/15 01:46:03;;;;;;;3.42;2.13;;;;;;;18.59;38.37;100177.31;4969812;28;119293;-85
2024/01/15 01:48:30;;;;;;;3.95;2.80;;;;;;;18.59;38.38;100179.94;4993621;28;96845;-84
2024/01/15 01:50:59;;;;;;;4.03;1.85;;;;;;;18.58;38.26;100179.09;4971484;28;97638;-85
2024/01/15 01:53:25;;;;;;;;;;;;;;;18.53;38.46;100180.16;4967301;28;98082;-85
2024/01/15 01:55:51;;;;;;;4.45;2.80;;;;;;;18.53;38.25;100182.78;4977980;28;97852;-85
2024/01/15 01:58:17;;;;;;;3.67;2.17;;;;;;;18.55;38.36;100179.19;4987041;28;96820;-85
2024/01/15 02:00:43;;;;;;;3.55;2.38;;;;;;;18.56;38.31;100174.78;4984772;28;96812;-85
2024/01/15 02:03:09;;;;;;;4.32;2.63;;;;;;;18.56;38.34;100188.84;4998849;28;96847;-85
2024/01/15 02:05:35;;;;;;;3.33;2.17;;;;;;;18.56;38.51;100180.06;4984313;28;100160;-85
2024/01/15 02:08:00;;;;;;;3.72;2.40;;;;;;;18.57;38.46;100179.13;4989628;28;97715;-84
2024/01/15 02:10:25;;;;;;;3.42;2.55;;;;;;;18.56;38.34;100183.56;4983284;28;96820;-85
2024/01/15 02:12:51;;;;;;;3.33;2.22;;;;;;;18.57;38.41;100184.41;4977594;28;103493;-85
2024/01/15 02:15:16;;;;;;;3.80;2.15;;;;;;;18.56;38.14;100180.06;4966793;28;100225;-85
2024/01/15 02:17:58;;;;;;;3.05;2.30;;;;;;;18.56;38.24;100172.16;4985445;28;97791;-85
2024/01/15 02:20:24;;;;;;;3.33;1.92;;;;;;;18.56;38.61;100172.16;4967106;28;96843;-85
2024/01/15 02:22:49;;;;;;;3.55;1.60;;;;;;;18.55;38.15;100176.53;4996759;28;96750;-85
2024/01/15 02:25:15;;;;;;;4.38;2.30;;;;;;;18.56;38.45;100169.50;4976080;28;96900;-85
2024/01/15 02:27:41;;;;;;;3.47;2.17;;;;;;;18.56;38.38;100172.16;4985075;28;114128;-85
2024/01/15 02:30:09;;;;;;;2.95;1.98;;;;;;;18.56;38.44;100177.44;4987885;28;96937;-85
2024/01/15 02:32:34;;;;;;;2.92;1.63;;;;;;;18.57;38.16;100173.84;4987609;28;96836;-85
2024/01/15 02:35:00;;;;;;;3.05;1.80;;;;;;;18.57;38.45;100177.38;4986424;28;127826;-85
2024/01/15 02:37:25;;;;;;;3.63;2.13;;;;;;;18.56;38.30;100178.28;4967366;28;96813;-85
2024/01/15 02:39:50;;;;;;;2.95;1.80;;;;;;;18.56;38.14;100167.72;4977173;28;111149;-85
2024/01/15 02:42:16;;;;;;;2.78;1.70;;;;;;;18.57;38.16;100171.22;4998295;28;97957;-85
2024/01/15 02:44:41;;;;;;;2.60;1.35;;;;;;;18.56;38.27;100166.88;4960377;28;129977;-85
2024/01/15 02:47:07;;;;;;;3.45;2.13;;;;;;;18.56;38.14;100170.34;4984986;28;97430;-85
2024/01/15 02:49:32;;;;;;;2.92;1.67;;;;;;;18.57;38.50;100165.94;5012943;28;117210;-85
2024/01/15 02:51:57;;;;;;;3.08;2.03;;;;;;;18.55;38.26;100163.34;4983777;28;96890;-85
2024/01/15 02:54:23;;;;;;;3.20;1.90;;;;;;;18.55;38.09;100171.25;5005977;28;119603;-85
2024/01/15 02:56:48;;;;;;;3.08;1.42;;;;;;;18.55;38.29;100171.25;4988641;28;97799;-85
2024/01/15 02:59:14;;;;;;;4.20;2.03;;;;;;;18.55;38.26;100165.13;4973617;28;117571;-85
2024/01/15 03:01:39;;;;;;;2.97;2.05;;;;;;;18.56;38.24;100169.50;4978530;28;106860;-85
2024/01/15 03:04:04;;;;;;;2.55;1.83;;;;;;;18.56;37.98;100174.78;4981079;28;96950;-85
2024/01/15 03:06:30;;;;;;;2.65;1.52;;;;;;;18.56;38.44;100167.72;4993276;28;97938;-85
2024/01/15 03:08:55;;;;;;;3.38;1.58;;;;;;;18.56;38.26;100169.50;4972280;28;119891;-85
2024/01/15 03:11:20;;;;;;;2.85;1.42;;;;;;;18.55;38.31;100171.25;4972104;28;96883;-85
2024/01/15 03:13:46;;;;;;;2.55;1.63;;;;;;;18.55;38.26;100170.41;4988741;28;124052;-85
2024/01/15 03:16:11;;;;;;;3.50;2.35;;;;;;;18.55;38.09;100170.41;4988492;28;98773;-85
2024/01/15 03:18:37;;;;;;;3.33;1.92;;;;;;;18.55;38.19;100165.13;4987577;28;96761;-85
2024/01/15 03:21:02;;;;;;;2.88;1.70;;;;;;;18.55;38.19;100160.69;4989056;28;97437;-85
2024/01/15 03:23:28;;;;;;;3.33;1.65;;;;;;;18.55;38.06;100171.25;4999631;28;99865;-85
2024/01/15 03:25:53;;;;;;;2.20;1.48;;;;;;;18.55;38.12;100165.97;4981805;28;97279;-85
2024/01/15 03:28:18;;;;;;;3.75;2.00;;;;;;;18.55;38.04;100165.97;5007534;28;96748;-85
2024/01/15 03:30:44;;;;;;;2.83;1.73;;;;;;;18.55;38.20;100162.47;4987088;28;113305;-85
2024/01/15 03:33:09;;;;;;;2.67;1.42;;;;;;;18.55;38.13;100159.84;4987265;28;122355;-85
2024/01/15 03:35:34;;;;;;;5.07;2.00;;;;;;;18.55;37.93;100170.41;4986485;28;97371;-85
2024/01/15 03:38:00;;;;;;;2.38;1.88;;;;;;;18.56;38.24;100169.50;4967763;28;117720;-85
2024/01/15 03:40:25;;;;;;;3.03;1.50;;;;;;;18.55;38.36;100159.84;4972978;28;98796;-85
2024/01/15 03:42:51;;;;;;;2.58;1.42;;;;;;;18.54;37.88;100158.09;4990305;28;98059;-85
2024/01/15 03:45:16;;;;;;;2.90;1.45;;;;;;;18.55;38.29;100155.41;4985513;28;97654;-85
2024/01/15 03:47:42;;;;;;;2.35;1.65;;;;;;;18.55;38.01;100158.06;5017503;27;96991;-85
2024/01/15 03:50:08;;;;;;;2.65;1.63;;;;;;;18.55;37.99;100152.78;4972550;28;96837;-85
2024/01/15 03:52:33;;;;;;;2.00;1.10;;;;;;;18.55;37.98;100155.41;5002606;28;98681;-85
2024/01/15 03:54:58;;;;;;;2.13;1.63;;;;;;;18.55;38.14;100146.63;4965892;28;125825;-85
2024/01/15 03:57:24;;;;;;;2.25;1.20;;;;;;;18.55;38.12;100150.13;4988334;28;96838;-85
2024/01/15 03:59:49;;;;;;;2.63;1.67;;;;;;;18.55;38.20;100154.56;4989310;28;96802;-85
2024/01/15 04:02:15;;;;;;;2.70;1.70;;;;;;;18.54;37.77;100143.13;4963047;28;96865;-84
2024/01/15 04:04:43;;;;;;;3.00;1.40;;;;;;;18.55;38.06;100151.91;4980020;28;98609;-85
2024/01/15 04:07:09;;;;;;;2.67;1.25;;;;;;;18.56;38.04;100143.09;4986440;28;96727;-85
2024/01/15 04:09:35;;;;;;;2.35;1.30;;;;;;;18.54;37.84;100139.63;4986855;28;97029;-85
2024/01/15 04:12:00;;;;;;;3.05;2.03;;;;;;;18.55;38.11;100138.72;4976535;28;97796;-85
2024/01/15 04:14:25;;;;;;;2.30;1.50;;;;;;;18.55;37.83;100136.06;4989967;28;108907;-85
2024/01/15 04:16:51;;;;;;;2.95;1.58;;;;;;;18.53;38.09;100132.63;4980498;28;96888;-85
2024/01/15 04:19:16;;;;;;;2.72;1.77;;;;;;;18.53;37.81;100130.84;5015888;27;96718;-84
2024/01/15 04:21:41;;;;;;;2.92;1.58;;;;;;;18.53;38.29;100129.97;4995787;28;97054;-85
2024/01/15 04:24:07;;;;;;;2.53;1.63;;;;;;;18.53;38.04;100128.19;4998113;28;98269;-85
2024/01/15 04:26:32;;;;;;;1.70;1.00;;;;;;;18.53;38.08;100130.84;4983131;28;97402;-85
2024/01/15 04:28:58;;;;;;;2.75;1.35;;;;;;;18.52;37.81;100118.56;4978228;28;96929;-85
2024/01/15 04:31:26;;;;;;;2.45;1.20;;;;;;;18.54;37.90;100115.84;4968675;28;101016;-85
2024/01/15 04:33:52;;;;;;;3.30;1.05;;;;;;;18.53;38.17;100103.56;4962359;28;97642;-85
2024/01/15 04:36:18;;;;;;;2.42;1.60;;;;;;;18.54;37.74;100113.19;4981348;28;96848;-85
2024/01/15 04:38:43;;;;;;;2.40;1.50;;;;;;;18.53;37.79;100108.84;4989775;28;96824;-85
2024/01/15 04:41:13;;;;;;;3.20;1.17;;;;;;;18.53;37.96;100106.22;4979954;28;98796;-85
2024/01/15 04:43:38;;;;;;;1.92;1.00;;;;;;;18.53;37.89;100104.44;4976101;28;99245;-85
2024/01/15 04:46:05;;;;;;;2.80;1.42;;;;;;;18.53;37.82;100100.94;4972295;28;97001;-85
2024/01/15 04:48:31;;;;;;;3.13;1.90;;;;;;;18.54;37.99;100107.91;4982849;28;96950;-85
2024/01/15 04:50:56;;;;;;;2.00;1.50;;;;;;;18.53;37.95;100106.22;4995764;28;126581;-85
2024/01/15 04:53:21;;;;;;;2.80;1.60;;;;;;;18.54;37.92;100100.00;4960670;28;127216;-85
2024/01/15 04:55:47;;;;;;;3.33;1.30;;;;;;;18.54;38.15;100100.00;4968577;28;96700;-85
2024/01/15 04:58:12;;;;;;;2.00;1.40;;;;;;;18.53;37.92;100093.00;5008146;27;119599;-85
2024/01/15 05:00:37;;;;;;;2.42;1.42;;;;;;;18.53;38.02;100101.78;4996834;28;127529;-85
2024/01/15 05:03:03;;;;;;;2.60;0.90;;;;;;;18.53;37.79;100090.38;4975376;28;98384;-85
2024/01/15 05:05:28;;;;;;;2.45;1.60;;;;;;;18.53;38.06;100101.78;4967037;28;96890;-85
2024/01/15 05:07:54;;;;;;;2.90;1.80;;;;;;;18.53;37.79;100106.22;4987857;28;116350;-85
2024/01/15 05:10:19;;;;;;;2.45;1.10;;;;;;;18.53;37.71;100103.56;4969021;28;117014;-85
2024/01/15 05:12:44;;;;;;;3.85;1.60;;;;;;;18.53;38.09;100098.28;4980061;28;97425;-85
2024/01/15 05:15:10;;;;;;;1.98;1.17;;;;;;;18.52;37.95;100101.84;4971794;28;96946;-85
2024/01/15 05:17:35;;;;;;;2.10;0.90;;;;;;;18.51;38.06;100100.97;4979007;28;113348;-85
2024/01/15 05:20:00;;;;;;;2.42;1.55;;;;;;;18.51;38.00;100106.25;5003868;28;128881;-85
2024/01/15 05:22:26;;;;;;;3.40;1.55;;;;;;;18.51;37.82;100103.63;4969261;28;113000;-85
2024/01/15 05:24:51;;;;;;;3.00;1.45;;;;;;;18.51;37.81;100103.63;4987896;28;98930;-85
2024/01/15 05:27:17;;;;;;;1.73;0.80;;;;;;;18.52;37.76;100105.34;4980425;28;102893;-85
2024/01/15 05:29:42;;;;;;;1.58;0.90;;;;;;;18.53;37.79;100106.22;4983349;28;96802;-85
2024/01/15 05:32:08;;;;;;;3.08;1.50;;;;;;;18.51;37.45;100098.34;5000054;28;123817;-85
2024/01/15 05:34:33;;;;;;;2.15;1.35;;;;;;;18.51;37.82;100095.69;5017029;27;97067;-85
2024/01/15 05:36:59;;;;;;;1.45;0.90;;;;;;;18.51;37.92;100084.28;4988595;28;97026;-85
2024/01/15 05:39:24;;;;;;;2.63;2.22;;;;;;;18.51;37.94;100090.41;4967906;28;100190;-85
2024/01/15 05:41:49;;;;;;;1.77;1.13;;;;;;;18.52;37.73;100091.25;5001137;28;99107;-85
2024/01/15 05:44:15;;;;;;;2.53;1.20;;;;;;;18.52;37.61;100086.88;4968410;28;96837;-85
2024/01/15 05:46:40;;;;;;;1.67;0.95;;;;;;;18.52;37.83;100086.88;5001864;27;111230;-85
2024/01/15 05:49:06;;;;;;;1.60;1.10;;;;;;;18.52;38.07;100091.25;4984444;28;104411;-85
2024/01/15 05:51:31;;;;;;;1.75;1.20;;;;;;;18.52;37.73;100099.19;4971527;28;100354;-85
2024/01/15 05:53:56;;;;;;;2.47;1.45;;;;;;;18.52;37.68;100089.50;4971360;28;96618;-85
2024/01/15 05:56:24;;;;;;;1.90;0.82;;;;;;;18.52;37.72;100078.06;5003212;28;115066;-85
2024/01/15 05:58:49;;;;;;;1.75;1.20;;;;;;;18.52;37.71;100088.63;4985662;28;98381;-85
2024/01/15 06:01:14;;;;;;;1.95;0.90;;;;;;;18.51;37.97;100071.94;4986862;28;110400;-85
2024/01/15 06:03:40;;;;;;;2.35;0.73;;;;;;;18.53;38.13;100077.16;4998361;28;97244;-85
2024/01/15 06:06:05;;;;;;;1.83;0.90;;;;;;;18.52;37.79;100075.41;4969564;28;96941;-85
2024/01/15 06:08:31;;;;;;;1.88;1.17;;;;;;;18.51;37.57;100079.84;4969093;28;99560;-85
2024/01/15 06:10:56;;;;;;;1.70;0.90;;;;;;;18.52;37.73;100067.50;4985404;28;121100;-85
2024/01/15 06:13:22;;;;;;;1.70;1.13;;;;;;;18.52;37.74;100072.78;4964750;28;97909;-85
2024/01/15 06:15:47;;;;;;;2.55;0.88;;;;;;;18.53;37.79;100063.97;4986043;28;96844;-85
2024/01/15 06:18:13;;;;;;;2.17;1.20;;;;;;;18.51;37.73;100066.66;4963954;28;97468;-85
2024/01/15 06:20:39;;;;;;;2.13;1.10;;;;;;;18.52;37.81;100067.50;4986487;28;119740;-85
2024/01/15 06:23:04;;;;;;;2.33;0.82;;;;;;;18.52;37.72;100062.22;4989936;28;96786;-85
2024/01/15 06:25:30;;;;;;;1.10;0.73;;;;;;;18.52;37.78;100060.47;4975025;28;97284;-85
2024/01/15 06:27:55;;;;;;;1.45;0.85;;;;;;;18.52;37.81;100054.28;4965922;28;127428;-86
2024/01/15 06:30:20;;;;;;;2.67;1.20;;;;;;;18.51;37.83;100065.78;4964809;28;126241;-85
2024/01/15 06:32:46;;;;;;;1.48;0.82;;;;;;;18.52;37.79;100059.56;4984997;28;96789;-85
2024/01/15 06:35:11;;;;;;;1.30;0.68;;;;;;;18.52;37.64;100063.09;4984173;28;99103;-85
2024/01/15 06:37:37;;;;;;;1.52;0.82;;;;;;;18.50;37.69;100056.13;4990747;28;99869;-85
2024/01/15 06:40:03;;;;;;;1.67;0.90;;;;;;;18.52;37.80;100060.47;4995466;28;99800;-86
2024/01/15 06:42:28;;;;;;;2.10;1.25;;;;;;;18.52;37.71;100055.19;5003908;28;96898;-85
2024/01/15 06:44:54;;;;;;;1.27;1.00;;;;;;;18.52;37.75;100059.56;4984485;28;98116;-85
2024/01/15 06:47:19;;;;;;;1.60;1.08;;;;;;;18.52;37.52;100064.84;4990646;28;103810;-85
2024/01/15 06:49:44;;;;;;;1.65;0.63;;;;;;;18.52;37.67;100064.84;4984332;28;100828;-85
2024/01/15 06:52:12;;;;;;;1.75;1.13;;;;;;;18.51;37.59;100061.38;4986234;28;96914;-85
2024/01/15 06:54:37;;;;;;;1.45;0.68;;;;;;;18.52;37.68;100056.94;4997015;28;97258;-85
2024/01/15 06:57:03;;;;;;;1.48;0.70;;;;;;;18.51;37.64;100061.38;4983855;28;100981;-85
2024/01/15 06:59:28;;;;;;;1.45;0.68;;;;;;;18.52;37.79;100060.47;4975028;28;99666;-85
2024/01/15 07:01:55;;;;;;;1.20;0.90;;;;;;;18.51;37.56;100063.16;4979505;28;97499;-85
2024/01/15 07:04:20;;;;;;;1.52;1.13;;;;;;;18.51;37.53;100060.50;4990806;28;96987;-85
2024/01/15 07:06:47;;;;;;;1.40;1.02;;;;;;;18.52;37.41;100065.75;5019793;28;97679;-85
2024/01/15 07:09:12;;;;;;;2.05;1.00;;;;;;;18.52;37.60;100067.50;4985270;28;98536;-85
2024/01/15 07:11:38;;;;;;;2.13;1.23;;;;;;;18.51;37.53;100061.38;4973820;28;111978;-86
2024/01/15 07:14:03;;;;;;;1.40;0.65;;;;;;;18.52;37.74;100051.66;4972896;28;96693;-85
2024/01/15 07:16:29;;;;;;;1.20;1.00;;;;;;;18.51;37.80;100058.72;4979282;28;98972;-85
2024/01/15 07:18:54;;;;;;;2.05;1.08;;;;;;;18.51;37.72;100056.09;4973069;28;99942;-83
2024/01/15 07:21:20;;;;;;;1.63;1.08;;;;;;;18.51;37.79;100057.88;4971889;28;96661;-85
2024/01/15 07:23:45;;;;;;;1.92;1.35;;;;;;;18.50;37.55;100051.69;4982843;28;96915;-85
2024/01/15 07:26:10;;;;;;;1.20;0.63;;;;;;;18.51;37.53;100048.16;4993933;28;99920;-84
2024/01/15 07:28:36;;;;;;;1.52;0.80;;;;;;;18.51;37.81;100049.94;4983729;28;99135;-85
2024/01/15 07:31:03;;;;;;;1.98;1.17;;;;;;;18.51;37.86;100050.81;4984230;28;110679;-84
2024/01/15 07:33:29;;;;;;;1.50;1.05;;;;;;;18.51;37.73;100048.16;4977372;28;97132;-85
2024/01/15 07:35:54;;;;;;;1.88;0.63;;;;;;;18.51;37.47;100049.94;4995511;28;97087;-84
2024/01/15 07:38:19;;;;;;;1.35;0.73;;;;;;;18.50;37.46;100046.41;4996215;28;98337;-84
2024/01/15 07:40:49;;;;;;;1.67;1.10;;;;;;;18.51;37.89;100042.03;4983893;28;110899;-85
2024/01/15 07:43:14;;;;;;;1.27;0.90;;;;;;;18.51;37.61;100053.44;4982397;28;97353;-85
2024/01/15 07:45:40;;;;;;;1.10;0.60;;;;;;;18.50;37.61;100062.25;4967355;28;98038;-84
2024/01/15 07:48:06;;;;;;;1.35;0.52;;;;;;;18.50;37.59;100079.91;5016117;27;98454;-85
2024/01/15 07:50:31;;;;;;;1.75;0.75;;;;;;;18.51;37.55;100079.84;4983070;28;96699;-85
2024/01/15 07:52:56;;;;;;;1.67;0.80;;;;;;;18.51;37.53;100081.63;4981903;28;96883;-84
2024/01/15 07:55:22;;;;;;;1.05;0.52;;;;;;;18.52;37.82;100085.97;4979800;28;126841;-84
2024/01/15 07:57:48;;;;;;;0.85;0.57;;;;;;;18.50;37.81;100088.66;5000061;28;98734;-84
2024/01/15 08:00:13;;;;;;;1.52;0.52;;;;;;;18.50;37.85;100080.75;4987452;28;97671;-84
2024/01/15 08:02:39;;;;;;;1.27;1.05;;;;;;;18.52;37.57;100075.41;4986707;28;97522;-84
2024/01/15 08:05:05;;;;;;;0.85;0.63;;;;;;;18.51;37.53;100079.00;4995404;28;125798;-84
2024/01/15 08:07:30;;;;;;;1.30;0.73;;;;;;;18.50;37.61;100078.09;4995539;28;97345;-84
2024/01/15 08:09:56;;;;;;;1.23;0.73;;;;;;;18.51;37.81;100082.50;4990974;28;96505;-85
2024/01/15 08:12:22;;;;;;;1.20;0.73;;;;;;;18.51;37.69;100082.50;4966468;28;97082;-84
2024/01/15 08:14:47;;;;;;;1.20;0.70;;;;;;;18.52;37.88;100088.63;4972020;28;96844;-85
2024/01/15 08:17:13;;;;;;;1.33;0.52;;;;;;;18.52;37.69;100085.97;4988173;28;102661;-85
2024/01/15 08:19:40;;;;;;;1.23;0.60;;;;;;;18.51;37.69;100084.28;4995854;28;97035;-84
2024/01/15 08:22:06;;;;;;;1.48;0.73;;;;;;;18.51;37.61;100093.06;4990269;28;96974;-84
2024/01/15 08:24:31;;;;;;;1.05;0.65;;;;;;;18.52;37.73;100096.53;4998495;28;97661;-85
2024/01/15 08:26:57;;;;;;;1.88;1.20;;;;;;;18.50;37.41;100093.94;5004056;28;97687;-86
2024/01/15 08:29:24;;;;;;;1.20;0.55;;;;;;;18.51;37.53;100093.06;4970490;28;119023;-84
2024/01/15 08:31:50;;;;;;;1.83;0.90;;;;;;;18.51;37.47;100100.13;4989526;28;97028;-85
2024/01/15 08:34:15;;;;;;;1.13;0.70;;;;;;;18.51;37.80;100098.34;4982806;28;98444;-85
2024/01/15 08:36:40;;;;;;;1.25;0.75;;;;;;;18.51;37.67;100095.69;4984614;28;96820;-84
2024/01/15 08:39:06;;;;;;;1.30;1.02;;;;;;;18.51;37.80;100085.13;5006153;28;96962;-84
2024/01/15 08:41:35;;;;;;;1.00;0.43;;;;;;;18.51;37.83;100100.13;4990155;28;96871;-85
2024/01/15 08:44:00;;;;;;;0.80;0.45;;;;;;;18.50;37.41;100099.22;4974144;28;96953;-84
2024/01/15 08:46:26;;;;;;;1.27;0.60;;;;;;;18.49;37.86;100096.66;4990910;28;97545;-84
2024/01/15 08:48:51;;;;;;;0.55;0.40;;;;;;;18.49;37.82;100100.16;4975284;28;96785;-85
2024/01/15 08:51:18;;;;;;;0.90;0.60;;;;;;;18.51;37.66;100102.75;4982069;28;97371;-85
2024/01/15 08:53:44;;;;;;;2.17;0.57;;;;;;;18.51;37.58;100094.84;4987727;28;96920;-85
2024/01/15 08:56:09;;;;;;;1.17;0.90;;;;;;;18.50;37.63;100104.50;4980469;28;97767;-85
2024/01/15 08:58:35;;;;;;;1.33;0.98;;;;;;;18.50;37.63;100101.88;4989044;28;96827;-84
2024/01/15 09:01:00;;;;;;;1.42;0.73;;;;;;;18.50;37.58;100107.16;4963568;28;97733;-85
2024/01/15 09:03:25;;;;;;;0.60;0.40;;;;;;;18.50;37.59;100104.50;4986512;28;99342;-85
2024/01/15 09:05:51;;;;;;;2.08;0.55;;;;;;;18.51;37.58;100119.47;4989314;28;99781;-85
2024/01/15 09:08:16;;;;;;;1.48;0.70;;;;;;;18.51;37.52;100123.88;4988617;28;96982;-85
2024/01/15 09:10:41;;;;;;;1.00;0.63;;;;;;;18.49;37.67;100115.16;4975507;28;110285;-85
2024/01/15 09:13:08;;;;;;;0.90;0.80;;;;;;;18.51;37.59;100127.38;4985835;28;98994;-85
2024/01/15 09:15:33;;;;;;;0.73;0.40;;;;;;;18.50;37.71;100120.38;4976605;28;97028;-85
2024/01/15 09:17:59;;;;;;;2.58;1.00;;;;;;;18.51;37.61;100115.97;5002209;28;96811;-85
2024/01/15 09:20:25;;;;;;;0.82;0.52;;;;;;;18.50;37.79;100101.03;4959196;28;97427;-85
2024/01/15 09:22:51;;;;;;;1.40;0.80;;;;;;;18.51;37.55;100108.03;4977731;28;99195;-84
2024/01/15 09:25:16;;;;;;;0.95;0.35;;;;;;;18.51;37.58;100098.34;4975991;28;97520;-84
2024/01/15 09:27:42;;;;;;;2.85;0.95;;;;;;;18.51;37.67;100095.69;4982123;28;96820;-85
2024/01/15 09:30:08;;;;;;;1.40;1.00;;;;;;;18.51;37.59;100100.13;4983694;28;97624;-85
2024/01/15 09:32:33;;;;;;;1.35;0.47;;;;;;;18.51;37.54;100103.63;4977348;28;96816;-85
2024/01/15 09:34:59;;;;;;;1.10;0.90;;;;;;;18.51;37.44;100108.91;4978012;28;97343;-85
2024/01/15 09:37:25;;;;;;;1.27;0.50;;;;;;;18.51;37.68;100110.69;4986839;28;97214;-85
2024/01/15 09:39:50;;;;;;;1.38;1.00;;;;;;;18.51;37.60;100102.75;5004296;28;96734;-85
2024/01/15 09:42:15;;;;;;;1.05;0.88;;;;;;;18.51;37.53;100102.75;4986375;28;119826;-85
2024/01/15 09:44:41;;;;;;;0.95;0.90;;;;;;;18.52;37.79;100115.03;4991590;28;122474;-85
2024/01/15 09:47:07;;;;;;;1.58;0.55;;;;;;;18.51;37.50;100124.75;4966332;28;97308;-85
2024/01/15 09:49:33;;;;;;;1.23;1.13;;;;;;;18.52;37.65;100120.31;4972211;28;97025;-84
2024/01/15 09:51:59;;;;;;;1.45;0.55;;;;;;;18.52;37.59;100122.97;4969591;28;97653;-84
2024/01/15 09:54:25;;;;;;;1.45;0.90;;;;;;;18.51;37.55;100126.53;4991553;28;96666;-85
2024/01/15 09:56:50;;;;;;;1.30;1.20;;;;;;;18.52;37.64;100128.25;4969382;28;96840;-85
2024/01/15 09:59:18;;;;;;;0.75;0.55;;;;;;;18.52;37.42;100122.97;4973364;28;115309;-85
2024/01/15 10:01:48;;;;;;;1.30;0.80;;;;;;;18.52;37.79;100122.97;4987790;28;100383;-84
2024/01/15 10:04:14;;;;;;;1.00;0.57;;;;;;;18.52;37.71;100122.97;4969019;28;97508;-84
2024/01/15 10:06:47;;;;;;;2.00;0.98;;;;;;;18.52;37.54;100122.97;4981871;28;96703;-85
2024/01/15 10:09:16;;;;;;;1.30;1.10;;;;;;;18.52;37.95;100118.56;4987087;28;97175;-85
2024/01/15 10:11:42;;;;;;;1.73;1.15;;;;;;;18.52;37.69;100113.28;4984230;28;96990;-85
2024/01/15 10:14:12;;;;;;;0.50;0.43;;;;;;;18.52;37.39;100102.72;4979152;28;98142;-85
2024/01/15 10:16:41;;;;;;;2.08;0.45;;;;;;;18.53;37.66;100106.22;4995708;28;96706;-84
2024/01/15 10:19:07;;;;;;;1.52;0.40;;;;;;;18.54;37.71;100108.81;4998655;28;97174;-85
2024/01/15 10:21:35;;;;;;;1.23;0.90;;;;;;;18.54;37.65;100107.91;4975283;28;97912;-85
2024/01/15 10:24:02;;;;;;;2.45;0.93;;;;;;;18.55;37.64;100109.66;4985927;28;97436;-84
2024/01/15 10:26:28;;;;;;;0.88;0.63;;;;;;;18.54;37.51;100108.81;4977889;28;96701;-84
2024/01/15 10:28:53;;;;;;;1.20;0.50;;;;;;;18.54;37.63;100107.91;5003556;28;96941;-85
2024/01/15 10:31:22;;;;;;;1.02;0.90;;;;;;;18.54;37.87;100114.09;4988798;28;97335;-85
2024/01/15 10:33:51;;;;;;;1.98;0.90;;;;;;;18.54;37.46;100123.78;4970292;28;99598;-84
2024/01/15 10:36:17;;;;;;;1.25;0.60;;;;;;;18.55;37.71;100114.94;5014438;28;96878;-85
2024/01/15 10:38:44;;;;;;;1.38;0.57;;;;;;;18.54;37.43;100108.81;4971448;28;97025;-84
2024/01/15 10:41:09;;;;;;;0.65;0.50;;;;;;;18.54;37.60;100111.44;4980959;28;97052;-85
2024/01/15 10:43:34;;;;;;;2.50;1.10;;;;;;;18.54;37.54;100108.81;4957724;28;111789;-85
2024/01/15 10:46:00;;;;;;;0.65;0.43;;;;;;;18.54;37.63;100106.16;4985571;28;108917;-85
2024/01/15 10:48:28;;;;;;;1.13;0.52;;;;;;;18.55;37.71;100105.22;4987934;28;97638;-85
2024/01/15 10:50:54;;;;;;;0.50;0.32;;;;;;;18.55;37.62;100096.47;4976265;28;97668;-84
2024/01/15 10:53:21;;;;;;;0.95;0.52;;;;;;;18.56;37.52;100098.19;4983178;28;97423;-85
2024/01/15 10:55:48;;;;;;;1.73;0.75;;;;;;;18.56;37.49;100099.06;4980411;28;97127;-85
2024/01/15 10:58:14;;;;;;;1.25;0.43;;;;;;;18.56;37.69;100100.84;4985102;28;96695;-85
2024/01/15 11:00:40;;;;;;;1.00;0.60;;;;;;;18.56;37.58;100096.41;4972329;28;97129;-85
2024/01/15 11:03:06;;;;;;;0.95;0.80;;;;;;;18.57;37.46;100092.00;4983922;28;97288;-84
2024/01/15 11:05:39;;;;;;;1.58;0.70;;;;;;;18.58;37.59;100099.00;4999961;28;97546;-85
2024/01/15 11:08:08;;;;;;;1.27;0.80;;;;;;;18.56;37.62;100092.91;4987808;28;97494;-85
2024/01/15 11:10:49;;;;;;;1.30;0.60;;;;;;;18.57;37.75;100105.19;4987561;28;99117;-85
2024/01/15 11:13:39;;;;;;;1.25;0.82;;;;;;;18.57;37.66;100103.44;4987965;28;97730;-85
2024/01/15 11:16:07;;;;;;;2.72;1.02;;;;;;;18.57;37.83;100107.84;4987863;28;96873;-84
2024/01/15 11:18:43;;;;;;;0.68;0.68;;;;;;;18.58;37.48;100106.94;4975189;28;96840;-85